createdAt,value
2019-05-13T00:00:24.302Z,2.90
2019-05-13T00:02:51.177Z,2.90
2019-05-13T00:05:18.181Z,2.90
2019-05-13T00:07:45.093Z,2.80
2019-05-13T00:10:14.369Z,2.70
2019-05-13T00:12:40.873Z,2.60
2019-05-13T00:15:08.086Z,2.60
2019-05-13T00:17:34.980Z,2.50
2019-05-13T00:20:04.022Z,2.50
2019-05-13T00:22:30.831Z,2.50
2019-05-13T00:24:57.613Z,2.40
2019-05-13T00:27:24.378Z,2.40
2019-05-13T00:29:53.371Z,2.40
2019-05-13T00:32:19.864Z,2.40
2019-05-13T00:34:46.655Z,2.40
2019-05-13T00:37:14.693Z,2.40
2019-05-13T00:39:43.647Z,2.40
2019-05-13T00:42:10.498Z,2.40
2019-05-13T00:44:37.405Z,2.40
2019-05-13T00:47:04.656Z,2.40
2019-05-13T00:49:31.594Z,2.40
2019-05-13T00:51:58.599Z,2.40
2019-05-13T00:54:25.394Z,2.30
2019-05-13T00:56:54.633Z,2.30
2019-05-13T00:59:20.961Z,2.30
2019-05-13T01:01:47.871Z,2.30
2019-05-13T01:04:14.642Z,2.20
2019-05-13T01:06:43.387Z,2.20
2019-05-13T01:09:10.243Z,2.20
2019-05-13T01:11:37.133Z,2.20
2019-05-13T01:14:04.422Z,2.20
2019-05-13T01:16:33.930Z,2.10
2019-05-13T01:19:00.206Z,2.10
2019-05-13T01:21:27.086Z,2.10
2019-05-13T01:23:54.350Z,2.10
2019-05-13T01:26:23.267Z,2.10
2019-05-13T01:28:50.058Z,2.10
2019-05-13T01:31:16.865Z,2.00
2019-05-13T01:33:44.521Z,2.10
2019-05-13T01:36:13.418Z,2.10
2019-05-13T01:38:40.351Z,2.00
2019-05-13T01:41:07.115Z,2.00
2019-05-13T01:43:33.916Z,2.00
2019-05-13T01:46:00.822Z,2.00
2019-05-13T01:48:27.608Z,2.00
2019-05-13T01:50:54.484Z,2.00
2019-05-13T01:53:21.401Z,2.00
2019-05-13T01:55:48.382Z,1.90
2019-05-13T01:58:15.517Z,1.90
2019-05-13T02:00:44.326Z,1.90
2019-05-13T02:03:14.134Z,2.00
2019-05-13T02:05:40.098Z,2.00
2019-05-13T02:08:07.001Z,2.00
2019-05-13T02:10:54.381Z,2.00
2019-05-13T02:13:24.560Z,2.00
2019-05-13T02:15:51.450Z,2.00
2019-05-13T02:18:18.333Z,1.90
2019-05-13T02:20:45.618Z,1.90
2019-05-13T02:23:14.436Z,2.00
2019-05-13T02:25:43.459Z,1.90
2019-05-13T02:28:10.769Z,2.00
2019-05-13T02:30:38.037Z,1.90
2019-05-13T02:33:04.841Z,1.90
2019-05-13T02:35:32.518Z,1.90
2019-05-13T02:38:17.763Z,1.80
2019-05-13T02:40:28.419Z,1.80
2019-05-13T02:42:55.224Z,1.80
2019-05-13T02:45:22.749Z,1.80
2019-05-13T02:47:52.162Z,1.80
2019-05-13T02:50:18.663Z,1.70
2019-05-13T02:52:45.566Z,1.60
2019-05-13T02:55:12.908Z,1.60
2019-05-13T02:57:43.277Z,1.60
2019-05-13T03:00:12.537Z,1.60
2019-05-13T03:02:38.271Z,1.70
2019-05-13T03:05:05.321Z,1.80
2019-05-13T03:07:33.295Z,1.80
2019-05-13T03:10:03.939Z,1.80
2019-05-13T03:12:32.023Z,1.80
2019-05-13T03:14:57.971Z,1.90
2019-05-13T03:17:32.693Z,1.90
2019-05-13T03:20:03.737Z,1.90
2019-05-13T03:22:28.325Z,1.90
2019-05-13T03:24:55.103Z,2.70
2019-05-13T03:27:25.143Z,3.30
2019-05-13T03:29:53.374Z,5.00
2019-05-13T03:32:25.619Z,5.20
2019-05-13T03:34:48.059Z,6.30
2019-05-13T03:37:16.213Z,7.10
2019-05-13T03:39:44.559Z,7.70
2019-05-13T03:42:12.655Z,8.30
2019-05-13T03:44:42.822Z,8.70
2019-05-13T03:47:12.629Z,9.30
2019-05-13T03:49:42.481Z,10.00
2019-05-13T03:52:13.262Z,10.20
2019-05-13T03:54:38.781Z,11.00
2019-05-13T03:57:05.780Z,11.00
2019-05-13T03:59:33.606Z,11.50
2019-05-13T04:02:02.508Z,11.90
2019-05-13T04:04:32.415Z,12.40
2019-05-13T04:06:58.636Z,12.80
2019-05-13T04:09:31.690Z,13.40
2019-05-13T04:11:54.708Z,13.90
2019-05-13T04:14:22.860Z,14.20
2019-05-13T04:16:53.151Z,14.50
2019-05-13T04:19:23.137Z,14.80
2019-05-13T04:21:52.630Z,14.60
2019-05-13T04:24:18.338Z,14.60
2019-05-13T04:26:45.359Z,14.40
2019-05-13T04:29:13.274Z,14.70
2019-05-13T04:31:42.417Z,14.80
2019-05-13T04:34:12.366Z,14.50
2019-05-13T04:36:38.314Z,14.40
2019-05-13T04:39:05.701Z,14.20
2019-05-13T04:41:33.387Z,14.10
2019-05-13T04:44:02.624Z,13.80
2019-05-13T04:46:32.533Z,13.80
2019-05-13T04:48:58.318Z,13.40
2019-05-13T04:51:25.210Z,13.40
2019-05-13T04:53:56.057Z,13.30
2019-05-13T04:56:22.420Z,13.50
2019-05-13T04:58:52.402Z,13.30
2019-05-13T05:01:55.256Z,13.00
2019-05-13T05:04:34.549Z,12.60
2019-05-13T05:07:41.844Z,11.60
2019-05-13T05:10:37.746Z,11.30
2019-05-13T05:13:35.747Z,10.50
2019-05-13T05:16:16.865Z,10.80
2019-05-13T05:19:08.227Z,10.40
2019-05-13T05:21:43.998Z,10.60
2019-05-13T05:24:42.291Z,11.30
2019-05-13T05:27:47.148Z,11.70
2019-05-13T05:30:32.070Z,11.70
2019-05-13T05:33:21.442Z,11.50
2019-05-13T05:36:38.859Z,11.70
2019-05-13T05:39:22.730Z,11.80
2019-05-13T05:41:53.047Z,12.30
2019-05-13T05:44:22.735Z,12.30
2019-05-13T05:46:53.324Z,11.90
2019-05-13T05:49:23.438Z,11.60
2019-05-13T05:51:52.662Z,11.60
2019-05-13T05:54:21.984Z,11.40
2019-05-13T05:56:52.662Z,11.20
2019-05-13T05:59:21.794Z,10.90
2019-05-13T06:01:52.605Z,10.90
2019-05-13T06:04:21.916Z,11.30
2019-05-13T06:06:52.053Z,11.70
2019-05-13T06:09:18.004Z,11.80
2019-05-13T06:11:44.799Z,12.80
2019-05-13T06:14:11.829Z,12.00
2019-05-13T06:16:38.847Z,12.10
2019-05-13T06:19:05.967Z,12.30
2019-05-13T06:21:32.979Z,11.90
2019-05-13T06:24:02.484Z,11.50
2019-05-13T06:26:31.262Z,11.60
2019-05-13T06:28:57.962Z,11.40
2019-05-13T06:31:24.979Z,11.70
2019-05-13T06:33:52.081Z,11.40
2019-05-13T06:36:19.116Z,11.50
2019-05-13T06:38:46.086Z,11.60
2019-05-13T06:41:14.808Z,11.90
2019-05-13T06:43:41.953Z,12.10
2019-05-13T06:46:08.913Z,11.70
2019-05-13T06:48:35.746Z,11.70
2019-05-13T06:51:02.763Z,11.80
2019-05-13T06:53:32.050Z,11.80
2019-05-13T06:55:58.478Z,11.80
2019-05-13T06:58:25.265Z,12.10
2019-05-13T07:00:56.475Z,12.40
2019-05-13T07:03:22.002Z,12.60
2019-05-13T07:05:49.110Z,12.60
2019-05-13T07:08:16.011Z,12.50
2019-05-13T07:10:42.945Z,12.90
2019-05-13T07:13:11.467Z,12.90
2019-05-13T07:15:38.572Z,12.80
2019-05-13T07:18:05.504Z,12.90
2019-05-13T07:20:32.437Z,12.70
2019-05-13T07:23:01.648Z,12.90
2019-05-13T07:25:28.070Z,13.00
2019-05-13T07:27:54.855Z,12.90
2019-05-13T07:30:36.975Z,13.00
2019-05-13T07:33:03.884Z,13.20
2019-05-13T07:35:37.185Z,13.00
2019-05-13T07:38:02.186Z,13.30
2019-05-13T07:40:29.249Z,13.30
2019-05-13T07:42:56.126Z,13.20
2019-05-13T07:45:22.993Z,13.30
2019-05-13T07:47:51.816Z,13.30
2019-05-13T07:50:18.682Z,13.30
2019-05-13T07:52:45.657Z,13.30
2019-05-13T07:55:13.759Z,13.60
2019-05-13T07:57:42.310Z,13.50
2019-05-13T08:00:12.237Z,13.60
2019-05-13T08:02:38.690Z,13.80
2019-05-13T08:05:05.922Z,13.40
2019-05-13T08:07:32.962Z,13.50
2019-05-13T08:10:03.183Z,13.70
2019-05-13T08:12:28.654Z,13.60
2019-05-13T08:15:15.596Z,13.70
2019-05-13T08:17:47.254Z,13.80
2019-05-13T08:20:12.712Z,14.10
2019-05-13T08:22:42.285Z,14.20
2019-05-13T08:25:08.820Z,14.10
2019-05-13T08:27:35.719Z,14.10
2019-05-13T08:30:03.293Z,14.30
2019-05-13T08:32:31.466Z,14.50
2019-05-13T08:35:08.708Z,14.20
2019-05-13T08:37:27.574Z,14.30
2019-05-13T08:39:54.386Z,14.40
2019-05-13T08:42:23.611Z,14.40
2019-05-13T08:44:52.353Z,14.20
2019-05-13T08:47:18.771Z,14.40
2019-05-13T08:49:45.716Z,14.70
2019-05-13T08:52:12.772Z,14.40
2019-05-13T08:54:41.826Z,14.70
2019-05-13T08:57:08.700Z,15.00
2019-05-13T08:59:35.634Z,15.10
2019-05-13T09:02:03.386Z,14.60
2019-05-13T09:04:31.581Z,13.80
2019-05-13T09:07:01.766Z,14.10
2019-05-13T09:09:28.097Z,14.60
2019-05-13T09:11:54.903Z,14.90
2019-05-13T09:14:22.588Z,14.40
2019-05-13T09:16:52.353Z,13.90
2019-05-13T09:19:18.489Z,13.60
2019-05-13T09:21:45.443Z,13.00
2019-05-13T09:24:21.694Z,12.80
2019-05-13T09:26:42.099Z,12.80
2019-05-13T09:29:11.726Z,13.50
2019-05-13T09:31:38.034Z,14.50
2019-05-13T09:34:04.939Z,14.70
2019-05-13T09:36:32.503Z,14.80
2019-05-13T09:39:02.046Z,14.70
2019-05-13T09:41:28.386Z,14.50
2019-05-13T09:43:55.439Z,14.40
2019-05-13T09:46:22.712Z,14.00
2019-05-13T09:48:51.595Z,13.50
2019-05-13T09:51:18.502Z,13.50
2019-05-13T09:53:45.318Z,13.20
2019-05-13T09:56:12.250Z,13.40
2019-05-13T09:58:39.157Z,13.10
2019-05-13T10:01:06.162Z,13.10
2019-05-13T10:03:33.421Z,13.20
2019-05-13T10:06:02.439Z,13.70
2019-05-13T10:08:29.287Z,14.30
2019-05-13T10:10:56.249Z,14.30
2019-05-13T10:13:23.477Z,13.80
2019-05-13T10:15:50.466Z,13.50
2019-05-13T10:18:17.324Z,13.10
2019-05-13T10:20:49.181Z,12.70
2019-05-13T10:23:16.351Z,12.20
2019-05-13T10:25:44.240Z,11.90
2019-05-13T10:28:13.297Z,11.90
2019-05-13T10:30:43.765Z,11.80
2019-05-13T10:33:09.299Z,11.60
2019-05-13T10:35:36.914Z,11.60
2019-05-13T10:38:04.597Z,11.80
2019-05-13T10:40:32.785Z,12.00
2019-05-13T10:43:01.879Z,12.30
2019-05-13T10:45:28.811Z,13.00
2019-05-13T10:47:55.618Z,13.70
2019-05-13T10:50:27.524Z,14.00
2019-05-13T10:52:52.196Z,13.70
2019-05-13T10:55:21.575Z,13.20
2019-05-13T10:57:48.256Z,12.70
2019-05-13T11:00:15.774Z,12.10
2019-05-13T11:02:42.699Z,11.90
2019-05-13T11:05:12.317Z,12.30
2019-05-13T11:07:39.227Z,13.30
2019-05-13T11:10:06.431Z,14.20
2019-05-13T11:12:33.717Z,14.40
2019-05-13T11:15:02.560Z,14.50
2019-05-13T11:17:31.308Z,13.60
2019-05-13T11:19:57.991Z,13.10
2019-05-13T11:22:24.904Z,13.00
2019-05-13T11:24:51.921Z,13.00
2019-05-13T11:27:18.942Z,13.60
2019-05-13T11:29:45.975Z,14.30
2019-05-13T11:32:13.391Z,14.10
2019-05-13T11:34:41.952Z,13.70
2019-05-13T11:37:12.124Z,13.40
2019-05-13T11:39:37.934Z,13.80
2019-05-13T11:42:04.917Z,14.20
2019-05-13T11:44:32.278Z,14.20
2019-05-13T11:46:59.519Z,14.00
2019-05-13T11:49:28.310Z,13.80
2019-05-13T11:51:55.319Z,14.00
2019-05-13T11:54:22.499Z,14.30
2019-05-13T11:56:55.646Z,14.00
2019-05-13T11:59:22.047Z,14.30
2019-05-13T12:01:48.434Z,14.40
2019-05-13T12:04:15.236Z,14.20
2019-05-13T12:06:47.883Z,13.90
2019-05-13T12:09:13.091Z,14.00
2019-05-13T12:11:39.917Z,14.00
2019-05-13T12:14:06.812Z,13.90
2019-05-13T12:16:34.967Z,13.90
2019-05-13T12:19:03.523Z,14.30
2019-05-13T12:21:30.685Z,14.00
2019-05-13T12:23:57.619Z,13.70
2019-05-13T12:26:24.458Z,13.80
2019-05-13T12:28:53.625Z,13.90
2019-05-13T12:31:22.199Z,13.70
2019-05-13T12:33:51.985Z,14.00
2019-05-13T12:36:18.739Z,13.90
2019-05-13T12:38:46.587Z,13.80
2019-05-13T12:41:13.393Z,13.70
2019-05-13T12:43:42.548Z,13.80
2019-05-13T12:46:12.285Z,13.80
2019-05-13T12:48:37.947Z,13.80
2019-05-13T12:51:04.875Z,14.20
2019-05-13T12:53:32.331Z,13.70
2019-05-13T12:56:03.191Z,13.60
2019-05-13T12:58:28.678Z,13.70
2019-05-13T13:00:55.515Z,13.80
2019-05-13T13:03:23.556Z,13.90
2019-05-13T13:05:51.082Z,13.90
2019-05-13T13:08:38.217Z,13.90
2019-05-13T13:10:46.666Z,14.00
2019-05-13T13:13:13.860Z,13.90
2019-05-13T13:15:43.466Z,14.30
2019-05-13T13:18:13.981Z,14.20
2019-05-13T13:20:42.108Z,14.30
2019-05-13T13:23:07.282Z,13.80
2019-05-13T13:25:34.191Z,13.40
2019-05-13T13:28:10.542Z,13.10
2019-05-13T13:30:34.546Z,13.10
2019-05-13T13:32:58.606Z,13.10
2019-05-13T13:35:25.521Z,13.10
2019-05-13T13:37:53.236Z,13.10
2019-05-13T13:42:52.849Z,12.30
2019-05-13T13:45:19.400Z,11.90
2019-05-13T13:47:46.204Z,11.60
2019-05-13T13:50:13.526Z,11.60
2019-05-13T13:52:44.938Z,11.40
2019-05-13T13:55:09.464Z,11.40
2019-05-13T13:57:36.626Z,10.90
2019-05-13T14:00:32.641Z,10.90
2019-05-13T14:02:36.840Z,10.90
2019-05-13T14:05:05.668Z,11.00
2019-05-13T14:07:13.677Z,12.80
2019-05-13T14:07:37.812Z,11.40
2019-05-13T14:10:04.155Z,11.80
2019-05-13T14:12:28.538Z,12.00
2019-05-13T14:14:55.458Z,11.90
2019-05-13T14:17:22.351Z,12.20
2019-05-13T14:19:49.262Z,12.20
2019-05-13T14:22:16.206Z,12.20
2019-05-13T14:24:42.985Z,12.30
2019-05-13T14:27:12.100Z,12.10
2019-05-13T14:29:44.449Z,12.30
2019-05-13T14:32:07.321Z,12.70
2019-05-13T14:34:34.098Z,13.10
2019-05-13T14:37:01.235Z,13.10
2019-05-13T14:39:28.325Z,12.70
2019-05-13T14:41:55.150Z,12.60
2019-05-13T14:44:22.160Z,12.30
2019-05-13T14:46:49.122Z,12.30
2019-05-13T14:49:16.153Z,12.40
2019-05-13T14:51:42.943Z,12.80
2019-05-13T14:54:09.936Z,12.90
2019-05-13T14:56:36.750Z,12.60
2019-05-13T14:59:03.632Z,12.00
2019-05-13T15:01:31.901Z,11.50
2019-05-13T15:03:58.965Z,11.40
2019-05-13T15:06:25.913Z,11.30
2019-05-13T15:08:52.961Z,11.20
2019-05-13T15:11:21.924Z,11.30
2019-05-13T15:13:51.160Z,11.30
2019-05-13T15:16:17.685Z,11.20
2019-05-13T15:18:44.620Z,10.80
2019-05-13T15:21:12.248Z,10.60
2019-05-13T15:23:39.302Z,10.60
2019-05-13T15:26:06.426Z,10.80
2019-05-13T15:28:33.205Z,11.00
2019-05-13T15:31:00.007Z,11.20
2019-05-13T15:33:27.185Z,11.30
2019-05-13T15:35:54.304Z,11.40
2019-05-13T15:38:21.222Z,11.60
2019-05-13T15:40:48.046Z,11.60
2019-05-13T15:43:14.826Z,11.60
2019-05-13T15:45:42.441Z,11.70
2019-05-13T15:48:11.480Z,11.60
2019-05-13T15:50:38.107Z,11.70
2019-05-13T15:53:05.242Z,11.70
2019-05-13T15:55:32.068Z,11.80
2019-05-13T15:57:58.898Z,11.90
2019-05-13T16:00:25.813Z,12.00
2019-05-13T16:02:52.727Z,12.10
2019-05-13T16:05:19.629Z,12.00
2019-05-13T16:07:46.454Z,12.00
2019-05-13T16:10:14.037Z,11.90
2019-05-13T16:12:40.829Z,11.80
2019-05-13T16:15:12.169Z,11.60
2019-05-13T16:17:41.554Z,11.50
2019-05-13T16:20:06.645Z,11.50
2019-05-13T16:22:33.638Z,11.40
2019-05-13T16:25:01.537Z,11.60
2019-05-13T16:27:31.041Z,11.70
2019-05-13T16:29:57.513Z,11.80
2019-05-13T16:32:24.393Z,11.90
2019-05-13T16:34:52.079Z,11.80
2019-05-13T16:37:19.201Z,11.80
2019-05-13T16:39:45.984Z,11.80
2019-05-13T16:42:12.824Z,11.70
2019-05-13T16:44:42.685Z,11.70
2019-05-13T16:47:08.929Z,11.70
2019-05-13T16:49:35.959Z,11.70
2019-05-13T16:52:02.972Z,11.70
2019-05-13T16:54:32.589Z,11.60
2019-05-13T16:57:01.063Z,11.60
2019-05-13T16:59:27.429Z,11.50
2019-05-13T17:01:54.542Z,11.30
2019-05-13T17:04:21.604Z,11.30
2019-05-13T17:06:48.534Z,11.40
2019-05-13T17:09:15.481Z,11.30
2019-05-13T17:11:42.421Z,11.30
2019-05-13T17:14:09.434Z,11.30
2019-05-13T17:16:36.214Z,11.20
2019-05-13T17:19:03.386Z,11.20
2019-05-13T17:21:31.693Z,11.10
2019-05-13T17:23:58.579Z,11.10
2019-05-13T17:26:25.396Z,11.10
2019-05-13T17:28:52.173Z,11.10
2019-05-13T17:31:18.991Z,11.00
2019-05-13T17:33:45.933Z,11.00
2019-05-13T17:36:12.825Z,10.90
2019-05-13T17:38:40.411Z,10.90
2019-05-13T17:41:07.363Z,10.90
2019-05-13T17:43:34.302Z,10.80
2019-05-13T17:46:01.301Z,10.80
2019-05-13T17:48:29.783Z,10.80
2019-05-13T17:50:56.931Z,10.80
2019-05-13T17:53:23.729Z,10.70
2019-05-13T17:55:51.582Z,10.70
2019-05-13T17:58:18.643Z,10.60
2019-05-13T18:00:45.522Z,10.50
2019-05-13T18:03:12.416Z,10.40
2019-05-13T18:05:39.310Z,10.40
2019-05-13T18:08:06.168Z,10.30
2019-05-13T18:10:33.076Z,10.30
2019-05-13T18:13:01.792Z,10.20
2019-05-13T18:15:28.738Z,10.10
2019-05-13T18:17:55.646Z,10.00
2019-05-13T18:20:22.680Z,9.90
2019-05-13T18:22:49.626Z,9.90
2019-05-13T18:25:16.755Z,9.80
2019-05-13T18:27:43.662Z,9.70
2019-05-13T18:30:11.391Z,9.70
2019-05-13T18:32:38.702Z,9.60
2019-05-13T18:35:05.931Z,9.50
2019-05-13T18:37:32.850Z,9.40
2019-05-13T18:40:02.325Z,9.40
2019-05-13T18:42:28.578Z,9.30
2019-05-13T18:44:55.426Z,9.30
2019-05-13T18:47:22.293Z,9.20
2019-05-13T18:49:49.290Z,9.00
2019-05-13T18:52:16.217Z,9.00
2019-05-13T18:54:43.127Z,8.90
2019-05-13T18:57:12.018Z,8.80
2019-05-13T18:59:38.963Z,8.70
2019-05-13T19:02:05.755Z,8.70
2019-05-13T19:04:32.610Z,8.50
2019-05-13T19:07:02.075Z,8.40
2019-05-13T19:09:28.498Z,8.40
2019-05-13T19:11:55.540Z,8.30
2019-05-13T19:14:22.628Z,8.20
2019-05-13T19:16:49.438Z,8.20
2019-05-13T19:19:19.910Z,8.10
2019-05-13T19:21:45.202Z,8.00
2019-05-13T19:24:13.396Z,8.00
2019-05-13T19:26:41.684Z,7.90
2019-05-13T19:29:08.834Z,7.90
2019-05-13T19:31:35.649Z,7.80
2019-05-13T19:34:02.573Z,7.80
2019-05-13T19:36:29.504Z,7.70
2019-05-13T19:38:56.385Z,7.60
2019-05-13T19:41:23.218Z,7.60
2019-05-13T19:43:51.011Z,7.60
2019-05-13T19:46:18.307Z,7.50
2019-05-13T19:48:45.198Z,7.50
2019-05-13T19:51:12.279Z,7.50
2019-05-13T19:53:41.051Z,7.50
2019-05-13T19:56:07.952Z,7.40
2019-05-13T19:58:34.800Z,7.30
2019-05-13T20:01:01.614Z,7.20
2019-05-13T20:03:28.404Z,7.10
2019-05-13T20:05:55.343Z,7.00
2019-05-13T20:08:22.210Z,6.90
2019-05-13T20:10:51.360Z,6.80
2019-05-13T20:13:18.070Z,6.80
2019-05-13T20:15:44.922Z,6.70
2019-05-13T20:18:12.257Z,6.70
2019-05-13T20:20:41.076Z,6.70
2019-05-13T20:23:08.171Z,6.80
2019-05-13T20:25:35.073Z,6.70
2019-05-13T20:28:02.445Z,6.70
2019-05-13T20:30:29.533Z,6.70
2019-05-13T20:32:56.378Z,6.80
2019-05-13T20:35:23.398Z,6.70
2019-05-13T20:37:51.574Z,6.70
2019-05-13T20:40:18.558Z,6.60
2019-05-13T20:42:45.343Z,6.70
2019-05-13T20:45:12.383Z,6.70
2019-05-13T20:47:41.838Z,6.60
2019-05-13T20:50:09.153Z,6.60
2019-05-13T20:52:36.098Z,6.40
2019-05-13T20:55:03.662Z,6.40
2019-05-13T20:57:32.376Z,6.40
2019-05-13T20:59:59.222Z,6.40
2019-05-13T21:02:26.241Z,6.30
2019-05-13T21:04:53.058Z,6.30
2019-05-13T21:07:21.732Z,6.40
2019-05-13T21:09:50.754Z,6.20
2019-05-13T21:12:17.489Z,6.00
2019-05-13T21:14:44.441Z,5.90
2019-05-13T21:17:12.259Z,6.00
2019-05-13T21:19:40.542Z,6.00
2019-05-13T21:22:08.050Z,6.00
2019-05-13T21:24:34.975Z,5.90
2019-05-13T21:27:02.215Z,5.70
2019-05-13T21:29:29.269Z,5.60
2019-05-13T21:31:56.165Z,5.50
2019-05-13T21:34:23.115Z,5.40
2019-05-13T21:36:51.793Z,5.30
2019-05-13T21:39:21.233Z,5.30
2019-05-13T21:41:47.688Z,5.30
2019-05-13T21:44:14.489Z,5.30
2019-05-13T21:46:41.434Z,5.30
2019-05-13T21:49:08.286Z,5.20
2019-05-13T21:51:35.194Z,5.10
2019-05-13T21:54:02.017Z,5.00
2019-05-13T21:56:29.002Z,4.90
2019-05-13T21:58:55.841Z,4.90
2019-05-13T22:01:23.434Z,4.80
2019-05-13T22:03:51.429Z,4.80
2019-05-13T22:06:18.689Z,4.80
2019-05-13T22:08:45.517Z,4.80
2019-05-13T22:11:12.537Z,4.90
2019-05-13T22:13:41.793Z,5.00
2019-05-13T22:16:08.320Z,4.90
2019-05-13T22:18:35.122Z,4.90
2019-05-13T22:21:01.945Z,4.80
2019-05-13T22:23:28.982Z,4.80
2019-05-13T22:25:55.778Z,4.70
2019-05-13T22:28:22.591Z,4.60
2019-05-13T22:30:51.645Z,4.50
2019-05-13T22:33:18.321Z,4.40
2019-05-13T22:35:45.273Z,4.30
2019-05-13T22:38:12.451Z,4.20
2019-05-13T22:40:41.735Z,4.20
2019-05-13T22:43:08.478Z,4.10
2019-05-13T22:45:35.393Z,4.10
2019-05-13T22:48:02.748Z,4.00
2019-05-13T22:50:30.982Z,3.90
2019-05-13T22:52:58.049Z,3.80
2019-05-13T22:55:24.949Z,3.70
2019-05-13T22:57:51.805Z,3.80
2019-05-13T23:00:18.802Z,3.70
2019-05-13T23:02:45.670Z,3.60
2019-05-13T23:05:12.750Z,3.50
2019-05-13T23:07:39.619Z,3.40
2019-05-13T23:10:07.094Z,3.40
2019-05-13T23:12:33.922Z,3.30
2019-05-13T23:15:01.342Z,3.30
2019-05-13T23:17:28.586Z,3.20
2019-05-13T23:19:55.509Z,3.20
2019-05-13T23:22:22.581Z,3.20
2019-05-13T23:24:49.401Z,3.10
2019-05-13T23:27:16.413Z,3.10
2019-05-13T23:29:43.246Z,3.10
2019-05-13T23:32:12.086Z,3.10
2019-05-13T23:34:38.745Z,3.00
2019-05-13T23:37:05.583Z,3.00
2019-05-13T23:39:32.514Z,3.00
2019-05-13T23:42:01.433Z,2.90
2019-05-13T23:44:28.495Z,2.80
2019-05-13T23:46:55.423Z,2.80
2019-05-13T23:49:22.433Z,2.70
2019-05-13T23:51:49.238Z,2.70
2019-05-13T23:54:16.079Z,2.70
2019-05-13T23:56:42.880Z,2.60
2019-05-13T23:59:11.357Z,2.60
